createdAt,value
2024-01-05T00:01:44.573Z,99386.91
2024-01-05T00:04:14.850Z,99384.98
2024-01-05T00:06:45.387Z,99384.86
2024-01-05T00:09:15.348Z,99387.05
2024-01-05T00:11:45.554Z,99395.92
2024-01-05T00:14:15.842Z,99400.29
2024-01-05T00:16:46.294Z,99405.00
2024-01-05T00:19:16.674Z,99405.18
2024-01-05T00:21:46.858Z,99404.20
2024-01-05T00:24:18.060Z,99404.94
2024-01-05T00:26:48.002Z,99416.23
2024-01-05T00:29:19.150Z,99423.19
2024-01-05T00:31:49.029Z,99430.30
2024-01-05T00:34:20.255Z,99434.52
2024-01-05T00:36:51.170Z,99435.44
2024-01-05T00:39:21.059Z,99435.44
2024-01-05T00:41:51.340Z,99430.30
2024-01-05T00:44:22.682Z,99438.18
2024-01-05T00:46:54.740Z,99429.28
2024-01-05T00:49:25.050Z,99429.28
2024-01-05T00:51:55.288Z,99416.33
2024-01-05T00:54:26.627Z,99411.27
2024-01-05T00:56:56.589Z,99424.88
2024-01-05T00:59:26.946Z,99427.88
2024-01-05T01:01:58.211Z,99432.23
2024-01-05T01:04:28.429Z,99437.77
2024-01-05T01:06:58.722Z,99439.13
2024-01-05T01:09:28.997Z,99433.75
2024-01-05T01:11:59.219Z,99431.98
2024-01-05T01:14:29.446Z,99434.34
2024-01-05T01:16:59.660Z,99432.23
2024-01-05T01:19:30.036Z,99440.78
2024-01-05T01:22:00.273Z,99437.02
2024-01-05T01:24:36.222Z,99441.52
2024-01-05T01:27:06.442Z,99443.84
2024-01-05T01:29:36.654Z,99446.44
2024-01-05T01:32:10.423Z,99451.06
2024-01-05T01:34:41.908Z,99447.19
2024-01-05T01:37:11.795Z,99448.73
2024-01-05T01:39:41.979Z,99454.83
2024-01-05T01:42:13.467Z,99446.27
2024-01-05T01:44:45.196Z,99446.44
2024-01-05T01:47:15.574Z,99443.97
2024-01-05T01:49:46.123Z,99438.91
2024-01-05T01:52:18.818Z,99442.60
2024-01-05T01:54:49.148Z,99429.87
2024-01-05T01:57:19.607Z,99440.02
2024-01-05T01:59:50.484Z,99445.49
2024-01-05T02:02:20.369Z,99450.49
2024-01-05T02:04:53.185Z,99455.31
2024-01-05T02:07:23.708Z,99454.99
2024-01-05T02:09:56.065Z,99460.64
2024-01-05T02:12:26.337Z,99462.13
2024-01-05T02:14:57.568Z,99464.11
2024-01-05T02:17:32.176Z,99463.36
2024-01-05T02:20:03.785Z,99464.74
2024-01-05T02:22:36.823Z,99458.36
2024-01-05T02:25:07.732Z,99460.91
2024-01-05T02:27:38.953Z,99461.72
2024-01-05T02:30:09.364Z,99461.72
2024-01-05T02:32:39.199Z,99466.41
2024-01-05T02:35:11.040Z,99458.69
2024-01-05T02:37:45.620Z,99450.03
2024-01-05T02:40:15.877Z,99447.77
2024-01-05T02:42:46.131Z,99452.84
2024-01-05T02:45:18.962Z,99443.97
2024-01-05T02:47:53.902Z,99444.89
2024-01-05T02:50:24.178Z,99435.39
2024-01-05T02:52:54.433Z,99437.40
2024-01-05T02:55:24.604Z,99438.78
2024-01-05T02:57:54.769Z,99436.17
2024-01-05T03:00:28.695Z,99441.52
2024-01-05T03:02:58.950Z,99447.95
2024-01-05T03:05:29.106Z,99451.31
2024-01-05T03:07:59.494Z,99454.98
2024-01-05T03:10:29.779Z,99457.59
2024-01-05T03:13:00.014Z,99461.27
2024-01-05T03:15:31.438Z,99456.28
2024-01-05T03:18:01.157Z,99450.70
2024-01-05T03:20:31.742Z,99443.21
2024-01-05T03:23:01.915Z,99441.80
2024-01-05T03:25:33.131Z,99441.33
2024-01-05T03:28:04.099Z,99436.72
2024-01-05T03:30:34.165Z,99434.39
2024-01-05T03:33:05.133Z,99435.55
2024-01-05T03:35:34.847Z,99435.94
2024-01-05T03:38:05.332Z,99433.41
2024-01-05T03:40:35.516Z,99432.22
2024-01-05T03:43:05.746Z,99430.33
2024-01-05T03:45:36.035Z,99432.86
2024-01-05T03:48:08.798Z,99431.23
2024-01-05T03:50:40.168Z,99426.73
2024-01-05T03:53:11.056Z,99428.75
2024-01-05T03:55:41.013Z,99424.45
2024-01-05T03:58:11.202Z,99424.45
2024-01-05T04:00:42.583Z,99439.69
2024-01-05T04:03:13.169Z,99432.97
2024-01-05T04:05:46.530Z,99427.48
2024-01-05T04:08:16.760Z,99425.19
2024-01-05T04:10:46.942Z,99426.43
2024-01-05T04:13:18.212Z,99429.91
2024-01-05T04:15:48.465Z,99433.36
2024-01-05T04:18:21.429Z,99427.20
2024-01-05T04:20:51.668Z,99439.27
2024-01-05T04:23:24.636Z,99438.78
2024-01-05T04:25:55.052Z,99444.16
2024-01-05T04:28:25.408Z,99451.45
2024-01-05T04:30:57.602Z,99455.35
2024-01-05T04:33:28.143Z,99468.90
2024-01-05T04:35:58.408Z,99465.09
2024-01-05T04:38:30.132Z,99474.67
2024-01-05T04:41:01.653Z,99473.77
2024-01-05T04:43:32.103Z,99468.69
2024-01-05T04:46:02.365Z,99461.58
2024-01-05T04:48:32.959Z,99464.33
2024-01-05T04:51:05.633Z,99473.85
2024-01-05T04:53:36.873Z,99474.17
2024-01-05T04:56:08.131Z,99468.80
2024-01-05T04:58:38.949Z,99468.80
2024-01-05T05:01:10.240Z,99459.86
2024-01-05T05:03:41.072Z,99463.44
2024-01-05T05:06:11.365Z,99468.17
2024-01-05T05:08:42.286Z,99463.44
2024-01-05T05:11:14.458Z,99468.92
2024-01-05T05:13:44.693Z,99457.21
2024-01-05T05:16:14.910Z,99449.94
2024-01-05T05:18:45.024Z,99443.20
2024-01-05T05:21:15.401Z,99447.16
2024-01-05T05:23:45.685Z,99450.20
2024-01-05T05:26:15.980Z,99448.03
2024-01-05T05:28:46.160Z,99447.16
2024-01-05T05:31:17.480Z,99436.44
2024-01-05T05:33:50.857Z,99436.95
2024-01-05T05:36:21.074Z,99437.23
2024-01-05T05:38:53.245Z,99434.88
2024-01-05T05:41:23.387Z,99431.78
2024-01-05T05:43:56.434Z,99438.67
2024-01-05T05:46:26.586Z,99444.97
2024-01-05T05:48:56.926Z,99448.66
2024-01-05T05:51:27.403Z,99441.79
2024-01-05T05:53:57.741Z,99435.96
2024-01-05T05:56:27.884Z,99442.13
2024-01-05T05:59:00.126Z,99443.67
2024-01-05T06:01:30.410Z,99422.25
2024-01-05T06:04:01.886Z,99428.44
2024-01-05T06:06:32.535Z,99421.39
2024-01-05T06:09:02.498Z,99421.95
2024-01-05T06:11:32.720Z,99410.45
2024-01-05T06:14:05.539Z,99408.30
2024-01-05T06:16:34.435Z,99414.75
2024-01-05T06:19:04.507Z,99413.69
2024-01-05T06:21:34.829Z,99412.08
2024-01-05T06:24:05.494Z,99417.45
2024-01-05T06:26:36.117Z,99411.58
2024-01-05T06:29:06.753Z,99409.19
2024-01-05T06:31:37.041Z,99410.28
2024-01-05T06:34:07.417Z,99411.55
2024-01-05T06:36:37.819Z,99410.73
2024-01-05T06:39:08.876Z,99408.61
2024-01-05T06:41:39.054Z,99401.98
2024-01-05T06:44:09.303Z,99408.62
2024-01-05T06:46:39.840Z,99405.59
2024-01-05T06:49:09.601Z,99406.45
2024-01-05T06:51:41.972Z,99401.83
2024-01-05T06:54:14.336Z,99401.80
2024-01-05T06:56:44.253Z,99402.56
2024-01-05T06:59:17.197Z,99396.59
2024-01-05T07:01:47.486Z,99393.61
2024-01-05T07:04:17.686Z,99388.16
2024-01-05T07:06:48.043Z,99388.40
2024-01-05T07:09:18.274Z,99392.38
2024-01-05T07:11:48.484Z,99392.91
2024-01-05T07:14:20.384Z,99407.50
2024-01-05T07:16:50.628Z,99392.81
2024-01-05T07:19:20.578Z,99396.80
2024-01-05T07:21:50.905Z,99400.33
2024-01-05T07:24:21.148Z,99399.23
2024-01-05T07:26:51.514Z,99403.17
2024-01-05T07:29:21.696Z,99397.86
2024-01-05T07:31:51.921Z,99389.17
2024-01-05T07:34:22.098Z,99389.17
2024-01-05T07:36:52.309Z,99392.27
2024-01-05T07:39:23.034Z,99393.56
2024-01-05T07:41:53.212Z,99389.14
2024-01-05T07:44:23.976Z,99379.53
2024-01-05T07:46:54.135Z,99385.34
2024-01-05T07:49:25.044Z,99385.69
2024-01-05T07:51:54.903Z,99387.46
2024-01-05T07:54:26.152Z,99392.94
2024-01-05T07:56:56.129Z,99393.48
2024-01-05T07:59:26.597Z,99392.91
2024-01-05T08:01:59.402Z,99403.59
2024-01-05T08:04:29.733Z,99407.02
2024-01-05T08:07:00.119Z,99410.20
2024-01-05T08:09:31.395Z,99406.15
2024-01-05T08:12:02.758Z,99401.45
2024-01-05T08:14:32.391Z,99392.28
2024-01-05T08:17:03.654Z,99398.12
2024-01-05T08:19:34.534Z,99405.28
2024-01-05T08:22:04.746Z,99401.78
2024-01-05T08:24:35.092Z,99412.76
2024-01-05T08:27:05.790Z,99410.28
2024-01-05T08:29:37.369Z,99404.09
2024-01-05T08:32:07.965Z,99402.34
2024-01-05T08:34:37.629Z,99389.77
2024-01-05T08:37:07.894Z,99390.86
2024-01-05T08:39:39.732Z,99388.69
2024-01-05T08:42:09.260Z,99394.94
2024-01-05T08:44:39.108Z,99386.63
2024-01-05T08:47:09.288Z,99395.00
2024-01-05T08:49:39.495Z,99399.59
2024-01-05T08:52:10.218Z,99399.33
2024-01-05T08:54:41.759Z,99393.53
2024-01-05T08:57:12.662Z,99394.82
2024-01-05T08:59:43.718Z,99392.91
2024-01-05T09:02:14.205Z,99385.79
2024-01-05T09:04:44.521Z,99385.79
2024-01-05T09:07:14.735Z,99370.52
2024-01-05T09:09:47.102Z,99362.34
2024-01-05T09:12:17.606Z,99366.66
2024-01-05T09:14:48.824Z,99373.13
2024-01-05T09:17:18.907Z,99379.27
2024-01-05T09:19:49.176Z,99376.63
2024-01-05T09:22:19.523Z,99370.88
2024-01-05T09:24:49.742Z,99384.22
2024-01-05T09:27:20.005Z,99387.25
2024-01-05T09:29:50.180Z,99394.00
2024-01-05T09:32:20.320Z,99398.22
2024-01-05T09:34:50.687Z,99411.98
2024-01-05T09:37:24.231Z,99402.90
2024-01-05T09:39:55.110Z,99401.28
2024-01-05T09:42:25.219Z,99400.28
2024-01-05T09:44:56.243Z,99392.98
2024-01-05T09:47:26.715Z,99390.17
2024-01-05T09:49:58.245Z,99395.98
2024-01-05T09:52:28.053Z,99400.77
2024-01-05T09:54:58.778Z,99398.53
2024-01-05T09:57:30.014Z,99401.16
2024-01-05T10:00:01.632Z,99404.22
2024-01-05T10:02:44.919Z,99398.78
2024-01-05T10:05:14.865Z,99403.08
2024-01-05T10:07:46.751Z,99396.55
2024-01-05T10:10:16.905Z,99395.14
2024-01-05T10:12:48.950Z,99387.09
2024-01-05T10:15:19.306Z,99388.48
2024-01-05T10:17:51.295Z,99389.17
2024-01-05T10:20:22.415Z,99392.17
2024-01-05T10:22:54.521Z,99389.33
2024-01-05T10:25:24.874Z,99384.24
2024-01-05T10:27:56.873Z,99379.56
2024-01-05T10:30:31.785Z,99384.19
2024-01-05T10:33:09.683Z,99382.17
2024-01-05T10:35:39.961Z,99368.36
2024-01-05T10:38:12.647Z,99362.29
2024-01-05T10:40:43.308Z,99357.84
2024-01-05T10:43:17.397Z,99358.77
2024-01-05T10:45:47.858Z,99354.11
2024-01-05T10:48:19.098Z,99346.31
2024-01-05T10:50:52.619Z,99352.02
2024-01-05T10:53:23.244Z,99344.11
2024-01-05T10:55:54.187Z,99338.03
2024-01-05T10:58:24.193Z,99320.87
2024-01-05T11:00:59.082Z,99322.02
2024-01-05T11:03:32.386Z,99323.17
2024-01-05T11:06:08.393Z,99324.23
2024-01-05T11:08:47.328Z,99311.28
2024-01-05T11:11:37.059Z,99314.54
2024-01-05T11:14:19.224Z,99316.60
2024-01-05T11:17:01.473Z,99305.59
2024-01-05T11:19:46.719Z,99314.58
2024-01-05T11:22:21.394Z,99314.84
2024-01-05T11:24:53.318Z,99314.75
2024-01-05T11:27:34.864Z,99307.80
2024-01-05T11:30:05.760Z,99307.42
2024-01-05T11:32:46.907Z,99300.45
2024-01-05T11:35:22.809Z,99300.30
2024-01-05T11:37:54.058Z,99287.57
2024-01-05T11:40:32.820Z,99290.58
2024-01-05T11:43:39.349Z,99289.59
2024-01-05T11:46:11.572Z,99288.42
2024-01-05T11:48:44.720Z,99293.19
2024-01-05T11:51:16.434Z,99280.92
2024-01-05T11:53:51.361Z,99282.11
2024-01-05T11:56:23.334Z,99282.11
2024-01-05T11:58:54.313Z,99276.19
2024-01-05T12:01:24.087Z,99279.25
2024-01-05T12:03:55.651Z,99269.22
2024-01-05T12:06:25.772Z,99263.15
2024-01-05T12:08:56.094Z,99260.23
2024-01-05T12:11:28.607Z,99265.65
2024-01-05T12:13:58.745Z,99256.53
2024-01-05T12:16:29.572Z,99258.42
2024-01-05T12:19:03.756Z,99250.95
2024-01-05T12:21:35.263Z,99256.20
2024-01-05T12:24:06.645Z,99250.51
2024-01-05T12:26:38.636Z,99245.75
2024-01-05T12:29:09.445Z,99240.33
2024-01-05T12:31:40.721Z,99236.59
2024-01-05T12:34:10.579Z,99226.69
2024-01-05T12:36:41.381Z,99223.58
2024-01-05T12:39:15.094Z,99225.04
2024-01-05T12:41:48.483Z,99221.67
2024-01-05T12:44:18.737Z,99221.16
2024-01-05T12:46:51.395Z,99214.30
2024-01-05T12:49:27.186Z,99207.23
2024-01-05T12:51:59.042Z,99207.54
2024-01-05T12:54:28.976Z,99202.78
2024-01-05T12:57:00.098Z,99208.45
2024-01-05T12:59:31.875Z,99206.20
2024-01-05T13:02:04.032Z,99196.24
2024-01-05T13:04:40.426Z,99190.55
2024-01-05T13:07:12.721Z,99197.27
2024-01-05T13:09:43.641Z,99204.84
2024-01-05T13:12:13.985Z,99195.55
2024-01-05T13:14:44.308Z,99195.86
2024-01-05T13:17:15.492Z,99190.73
2024-01-05T13:19:45.416Z,99185.22
2024-01-05T13:22:15.702Z,99184.75
2024-01-05T13:24:47.158Z,99185.50
2024-01-05T13:27:16.962Z,99197.47
2024-01-05T13:29:48.835Z,99194.66
2024-01-05T13:32:19.294Z,99197.36
2024-01-05T13:34:49.550Z,99191.49
2024-01-05T13:37:22.419Z,99192.99
2024-01-05T13:39:53.323Z,99184.94
2024-01-05T13:42:25.196Z,99174.30
2024-01-05T13:44:54.116Z,99179.55
2024-01-05T13:47:25.526Z,99171.34
2024-01-05T13:49:55.773Z,99164.21
2024-01-05T13:52:26.137Z,99160.13
2024-01-05T13:54:56.390Z,99157.05
2024-01-05T13:57:26.685Z,99164.21
2024-01-05T13:59:56.903Z,99169.74
2024-01-05T14:02:27.338Z,99171.98
2024-01-05T14:04:59.184Z,99171.05
2024-01-05T14:07:28.182Z,99169.63
2024-01-05T14:09:59.009Z,99175.25
2024-01-05T14:12:28.981Z,99166.36
2024-01-05T14:14:59.292Z,99178.71
2024-01-05T14:17:29.544Z,99175.44
2024-01-05T14:20:00.178Z,99175.98
2024-01-05T14:22:30.477Z,99183.83
2024-01-05T14:25:00.830Z,99187.03
2024-01-05T14:27:31.104Z,99185.13
2024-01-05T14:30:01.407Z,99185.16
2024-01-05T14:32:31.571Z,99198.31
2024-01-05T14:35:03.521Z,99195.59
2024-01-05T14:37:34.025Z,99187.28
2024-01-05T14:40:06.027Z,99185.78
2024-01-05T14:42:37.842Z,99181.50
2024-01-05T14:45:07.159Z,99179.19
2024-01-05T14:47:37.230Z,99186.56
2024-01-05T14:50:08.619Z,99190.29
2024-01-05T14:52:38.275Z,99189.98
2024-01-05T14:55:10.506Z,99185.97
2024-01-05T14:57:42.339Z,99189.73
2024-01-05T15:00:13.015Z,99173.20
2024-01-05T15:02:45.016Z,99178.87
2024-01-05T15:05:15.727Z,99178.14
2024-01-05T15:07:46.387Z,99176.25
2024-01-05T15:10:16.635Z,99173.29
2024-01-05T15:12:47.853Z,99178.44
2024-01-05T15:15:18.862Z,99186.55
2024-01-05T15:17:49.717Z,99184.51
2024-01-05T15:20:19.643Z,99181.96
2024-01-05T15:22:49.809Z,99183.08
2024-01-05T15:25:20.540Z,99190.84
2024-01-05T15:27:53.821Z,99191.01
2024-01-05T15:30:21.363Z,99189.72
2024-01-05T15:32:50.986Z,99193.16
2024-01-05T15:35:21.519Z,99189.05
2024-01-05T15:37:51.685Z,99182.06
2024-01-05T15:40:30.167Z,99186.64
2024-01-05T15:42:52.465Z,99185.32
2024-01-05T15:45:30.481Z,99180.74
2024-01-05T15:48:01.411Z,99177.18
2024-01-05T15:50:31.145Z,99170.20
2024-01-05T15:53:02.361Z,99164.97
2024-01-05T15:55:37.958Z,99170.20
2024-01-05T15:58:06.709Z,99176.38
2024-01-05T16:00:37.951Z,99171.79
2024-01-05T16:03:08.905Z,99178.70
2024-01-05T16:05:38.917Z,99177.00
2024-01-05T16:08:09.116Z,99174.92
2024-01-05T16:10:39.365Z,99180.08
2024-01-05T16:13:09.685Z,99183.97
2024-01-05T16:15:40.002Z,99180.56
2024-01-05T16:18:10.513Z,99179.54
2024-01-05T16:20:42.420Z,99184.47
2024-01-05T16:23:12.608Z,99178.61
2024-01-05T16:25:44.843Z,99176.84
2024-01-05T16:28:15.053Z,99178.58
2024-01-05T16:30:45.370Z,99173.07
2024-01-05T16:33:15.707Z,99174.92
2024-01-05T16:35:46.944Z,99177.80
2024-01-05T16:38:16.812Z,99181.03
2024-01-05T16:40:47.025Z,99175.09
2024-01-05T16:43:22.721Z,99171.39
2024-01-05T16:45:53.139Z,99172.17
2024-01-05T16:48:23.717Z,99175.03
2024-01-05T16:50:54.624Z,99173.44
2024-01-05T16:53:26.784Z,99176.89
2024-01-05T16:55:59.099Z,99177.14
2024-01-05T16:58:29.668Z,99174.03
2024-01-05T17:01:00.164Z,99168.63
2024-01-05T17:03:30.551Z,99173.36
2024-01-05T17:06:00.921Z,99175.65
2024-01-05T17:08:31.152Z,99177.53
2024-01-05T17:11:01.344Z,99172.95
2024-01-05T17:13:32.070Z,99174.68
2024-01-05T17:16:02.221Z,99173.97
2024-01-05T17:18:32.650Z,99171.06
2024-01-05T17:21:05.067Z,99161.38
2024-01-05T17:23:35.221Z,99159.06
2024-01-05T17:26:06.457Z,99158.59
2024-01-05T17:28:36.434Z,99160.70
2024-01-05T17:31:06.571Z,99164.33
2024-01-05T17:33:36.872Z,99162.47
2024-01-05T17:36:07.280Z,99165.53
2024-01-05T17:38:37.603Z,99175.48
2024-01-05T17:41:07.851Z,99169.56
2024-01-05T17:43:38.063Z,99172.92
2024-01-05T17:46:08.213Z,99174.23
2024-01-05T17:48:38.539Z,99162.48
2024-01-05T17:51:09.066Z,99169.13
2024-01-05T17:53:44.337Z,99165.55
2024-01-05T17:56:25.890Z,99166.89
2024-01-05T17:58:55.821Z,99168.95
2024-01-05T18:01:34.503Z,99165.41
2024-01-05T18:04:04.938Z,99167.22
2024-01-05T18:06:35.230Z,99169.03
2024-01-05T18:09:06.481Z,99170.05
2024-01-05T18:11:36.613Z,99172.11
2024-01-05T18:14:08.283Z,99166.80
2024-01-05T18:16:38.205Z,99173.50
2024-01-05T18:19:11.186Z,99174.72
2024-01-05T18:21:44.165Z,99174.89
2024-01-05T18:24:14.579Z,99180.06
2024-01-05T18:26:45.377Z,99188.70
2024-01-05T18:29:22.139Z,99183.52
2024-01-05T18:31:49.767Z,99185.63
2024-01-05T18:34:21.548Z,99187.14
2024-01-05T18:36:53.460Z,99183.31
2024-01-05T18:39:22.799Z,99189.91
2024-01-05T18:41:52.647Z,99187.98
2024-01-05T18:44:22.864Z,99185.63
2024-01-05T18:46:58.994Z,99183.77
2024-01-05T18:49:30.912Z,99176.94
2024-01-05T18:52:01.404Z,99183.81
2024-01-05T18:54:31.712Z,99182.12
2024-01-05T18:57:01.952Z,99184.78
2024-01-05T18:59:34.916Z,99184.41
2024-01-05T19:02:06.169Z,99192.23
2024-01-05T19:04:37.642Z,99191.75
2024-01-05T19:07:06.648Z,99191.75
2024-01-05T19:09:38.441Z,99191.59
2024-01-05T19:12:09.929Z,99195.08
2024-01-05T19:14:39.826Z,99197.09
2024-01-05T19:17:10.618Z,99191.55
2024-01-05T19:19:44.256Z,99186.54
2024-01-05T19:22:15.545Z,99185.70
2024-01-05T19:24:48.843Z,99170.61
2024-01-05T19:27:20.639Z,99170.61
2024-01-05T19:29:51.182Z,99171.94
2024-01-05T19:32:21.588Z,99166.87
2024-01-05T19:34:54.932Z,99168.70
2024-01-05T19:37:26.034Z,99168.94
2024-01-05T19:39:56.224Z,99165.80
2024-01-05T19:42:28.289Z,99163.61
2024-01-05T19:44:58.700Z,99163.69
2024-01-05T19:47:29.040Z,99156.13
2024-01-05T19:49:59.820Z,99159.62
2024-01-05T19:52:30.326Z,99153.59
2024-01-05T19:55:02.196Z,99150.27
2024-01-05T19:57:31.674Z,99148.92
2024-01-05T20:00:01.235Z,99140.25
2024-01-05T20:02:32.490Z,99145.09
2024-01-05T20:05:02.096Z,99137.14
2024-01-05T20:07:33.365Z,99133.17
2024-01-05T20:10:03.317Z,99135.38
2024-01-05T20:12:33.604Z,99135.38
2024-01-05T20:15:03.845Z,99128.01
2024-01-05T20:17:34.531Z,99125.23
2024-01-05T20:20:06.366Z,99132.34
2024-01-05T20:22:36.934Z,99135.20
2024-01-05T20:25:07.789Z,99131.98
2024-01-05T20:27:42.255Z,99135.11
2024-01-05T20:30:14.509Z,99136.27
2024-01-05T20:32:45.913Z,99134.56
2024-01-05T20:35:15.915Z,99132.47
2024-01-05T20:37:46.107Z,99131.77
2024-01-05T20:40:16.449Z,99121.86
2024-01-05T20:42:46.763Z,99126.29
2024-01-05T20:45:21.060Z,99125.70
2024-01-05T20:47:51.443Z,99126.20
2024-01-05T20:50:21.711Z,99132.34
2024-01-05T20:52:53.910Z,99135.80
2024-01-05T20:55:24.245Z,99142.78
2024-01-05T20:57:54.886Z,99140.25
2024-01-05T21:00:26.078Z,99140.80
2024-01-05T21:02:56.054Z,99146.19
2024-01-05T21:05:28.086Z,99142.74
2024-01-05T21:07:59.775Z,99143.45
2024-01-05T21:10:29.421Z,99144.55
2024-01-05T21:13:01.711Z,99143.61
2024-01-05T21:15:31.812Z,99140.71
2024-01-05T21:18:02.142Z,99132.89
2024-01-05T21:20:33.250Z,99137.06
2024-01-05T21:23:03.930Z,99129.98
2024-01-05T21:25:35.288Z,99133.27
2024-01-05T21:28:07.599Z,99128.86
2024-01-05T21:30:38.061Z,99124.45
2024-01-05T21:33:08.441Z,99132.52
2024-01-05T21:35:38.751Z,99126.20
2024-01-05T21:38:08.960Z,99125.58
2024-01-05T21:40:39.155Z,99129.75
2024-01-05T21:43:10.272Z,99137.11
2024-01-05T21:45:41.906Z,99132.35
2024-01-05T21:48:14.117Z,99129.88
2024-01-05T21:50:43.964Z,99130.96
2024-01-05T21:53:14.159Z,99136.64
2024-01-05T21:55:44.447Z,99139.72
2024-01-05T21:58:14.817Z,99144.93
2024-01-05T22:00:45.221Z,99145.48
2024-01-05T22:03:17.153Z,99152.48
2024-01-05T22:05:46.657Z,99153.27
2024-01-05T22:08:16.494Z,99144.84
2024-01-05T22:10:47.918Z,99144.75
2024-01-05T22:13:21.774Z,99136.64
2024-01-05T22:15:53.532Z,99133.90
2024-01-05T22:18:25.353Z,99133.59
2024-01-05T22:20:55.767Z,99139.27
2024-01-05T22:23:26.101Z,99135.14
2024-01-05T22:25:56.441Z,99135.45
2024-01-05T22:28:26.688Z,99138.13
2024-01-05T22:31:00.834Z,99127.14
2024-01-05T22:33:31.568Z,99137.59
2024-01-05T22:36:04.558Z,99133.98
2024-01-05T22:38:34.390Z,99135.96
2024-01-05T22:41:12.094Z,99132.98
2024-01-05T22:43:42.914Z,99138.05
2024-01-05T22:46:16.245Z,99135.72
2024-01-05T22:48:50.753Z,99141.12
2024-01-05T22:51:27.250Z,99133.05
2024-01-05T22:53:58.595Z,99130.96
2024-01-05T22:56:28.565Z,99135.11
2024-01-05T22:58:58.913Z,99128.41
2024-01-05T23:01:29.170Z,99129.43
2024-01-05T23:03:59.541Z,99130.87
2024-01-05T23:06:30.866Z,99128.47
2024-01-05T23:09:02.807Z,99129.06
2024-01-05T23:11:33.005Z,99128.89
2024-01-05T23:14:10.641Z,99137.73
2024-01-05T23:16:40.804Z,99136.52
2024-01-05T23:19:11.170Z,99140.81
2024-01-05T23:21:42.543Z,99142.16
2024-01-05T23:24:13.516Z,99136.27
2024-01-05T23:26:44.748Z,99137.94
2024-01-05T23:29:14.732Z,99132.80
2024-01-05T23:31:45.156Z,99136.27
2024-01-05T23:34:17.905Z,99134.03
2024-01-05T23:36:48.501Z,99142.78
2024-01-05T23:39:19.799Z,99140.09
2024-01-05T23:41:49.665Z,99137.98
2024-01-05T23:44:22.405Z,99135.13
2024-01-05T23:46:54.745Z,99134.75
2024-01-05T23:49:27.878Z,99136.43
2024-01-05T23:51:58.263Z,99134.03
2024-01-05T23:54:28.549Z,99130.46
2024-01-05T23:56:58.836Z,99129.91
2024-01-05T23:59:29.156Z,99127.22
